MOUNT RAINIER
GEOLOGY & WEATHER
Hello guest! [ Log In ]
morageology.com Water Data for Ohanapecosh RAWS at Ohanapecosh Ranger Station

Ohanapecosh RAWS at Ohanapecosh Ranger Station

Date Range to view:
 
[ Graphical View | Weather History ]

View this data in a CSV Format

GMT Date/Time Local Date/Time Air Temperature (°C) Dew Point Temperature (°C) Relative Humidity (%) Wind Direction (°) Wind Speed (mph) Wind Gust Speed (mph) Rainfall (in) Solar Radiation (w/m2) Battery (V)
2022-05-19 07:41:00 2022-05-19 00:41:00 3.3333 -9.6549 38.0 133 1.00 27.00 83.23 141.00 99.0
2022-05-19 08:41:00 2022-05-19 01:41:00 2.7778 -10.4906 37.0 182 0.00 27.10 83.25 25.00 99.0
2022-05-19 09:41:00 2022-05-19 02:41:00 2.7778 -10.4906 37.0 99 0.00 27.10 83.28 176.00 99.0
2022-05-19 10:41:00 2022-05-19 03:41:00 2.7778 -10.8360 36.0 296 0.00 27.10 83.37 339.00 99.0
2022-05-19 11:41:00 2022-05-19 04:41:00 2.7778 -10.4906 37.0 219 0.00 27.10 83.39 337.00 100.0
2022-05-19 12:41:00 2022-05-19 05:41:00 2.2222 -11.3318 36.0 168 0.00 27.10 83.43 318.00 100.0
2022-05-19 13:41:00 2022-05-19 06:41:00 2.7778 -10.4906 37.0 235 0.00 27.10 83.44 298.00 100.0
2022-05-19 14:41:00 2022-05-19 07:41:00 2.7778 -10.4906 37.0 233 0.00 27.10 83.45 289.00 100.0
2022-05-19 15:41:00 2022-05-19 08:41:00 3.3333 -9.6549 38.0 108 0.00 27.00 83.46 311.00 99.0
2022-05-19 16:41:00 2022-05-19 09:41:00 3.3333 -9.6549 38.0 180 1.00 27.00 83.48 293.00 99.0
2022-05-19 17:41:00 2022-05-19 10:41:00 5.0000 -6.5569 43.0 216 0.00 26.90 83.48 277.00 99.0
2022-05-19 18:41:00 2022-05-19 11:41:00 5.5556 -5.7502 44.0 96 0.00 26.60 83.49 149.00 91.0
2022-05-19 19:41:00 2022-05-19 12:41:00 7.2222 -3.6388 46.0 267 1.00 26.00 83.49 287.00 83.0
2022-05-19 20:41:00 2022-05-19 13:41:00 8.3333 -1.4919 50.0 124 1.00 26.10 83.49 299.00 75.0
2022-05-19 21:41:00 2022-05-19 14:41:00 7.2222 -3.9325 45.0 8 1.00 26.80 83.49 1.00 77.0
2022-05-19 22:41:00 2022-05-19 15:41:00 6.6667 -5.0424 43.0 349 0.00 26.90 83.49 26.00 87.0
2022-05-19 23:41:00 2022-05-19 16:41:00 6.1111 -5.2440 44.0 348 0.00 26.80 83.52 6.00 98.0
2022-05-20 00:41:00 2022-05-19 17:41:00 6.6667 -4.4397 45.0 226 0.00 26.80 83.52 250.00 98.0
2022-05-20 01:41:00 2022-05-19 18:41:00 6.1111 -5.2440 44.0 270 0.00 26.80 83.52 270.00 98.0
2022-05-20 02:41:00 2022-05-19 19:41:00 6.1111 -5.5471 43.0 324 0.00 26.90 83.52 273.00 98.0
2022-05-20 03:41:00 2022-05-19 20:41:00 5.5556 -6.3601 42.0 346 0.00 26.90 83.52 341.00 99.0
2022-05-20 04:41:00 2022-05-19 21:41:00 5.0000 -7.1771 41.0 1 0.00 27.00 83.52 348.00 99.0
2022-05-20 05:41:00 2022-05-19 22:41:00 4.4444 -7.9984 40.0 1 0.00 27.00 83.52 1.00 99.0
2022-05-20 06:41:00 2022-05-19 23:41:00 4.4444 -7.9984 40.0 1 0.00 27.00 83.52 1.00 99.0
2022-05-20 07:41:00 2022-05-20 00:41:00 4.4444 -7.9984 40.0 351 0.00 27.00 83.52 1.00 99.0
2022-05-20 08:41:00 2022-05-20 01:41:00 3.8889 -8.8242 39.0 2 0.00 27.00 83.52 351.00 99.0
2022-05-20 09:41:00 2022-05-20 02:41:00 3.3333 -9.6549 38.0 2 0.00 27.00 83.52 2.00 99.0
2022-05-20 10:41:00 2022-05-20 03:41:00 2.7778 -10.4906 37.0 41 0.00 27.10 83.52 2.00 98.0
2022-05-20 11:41:00 2022-05-20 04:41:00 2.7778 -10.4906 37.0 2 0.00 27.10 83.52 41.00 98.0
2022-05-20 12:41:00 2022-05-20 05:41:00 2.7778 -10.4906 37.0 171 0.00 27.10 83.52 0.00 98.0
2022-05-20 13:41:00 2022-05-20 06:41:00 3.3333 -9.6549 38.0 171 0.00 27.00 83.52 171.00 98.0
2022-05-20 14:41:00 2022-05-20 07:41:00 3.8889 -8.4995 40.0 301 0.00 27.00 83.52 171.00 94.0
2022-05-20 15:41:00 2022-05-20 08:41:00 5.5556 -6.0520 43.0 99 0.00 26.90 83.52 106.00 89.0
2022-05-20 16:41:00 2022-05-20 09:41:00 7.7778 -3.1305 46.0 320 0.00 26.80 83.52 273.00 75.0
2022-05-20 17:41:00 2022-05-20 10:41:00 8.8889 -1.5360 48.0 142 0.00 26.70 83.52 315.00 72.0
2022-05-20 18:41:00 2022-05-20 11:41:00 11.1111 1.8852 53.0 174 0.00 26.20 83.52 254.00 66.0
2022-05-20 19:41:00 2022-05-20 12:41:00 13.8889 6.4908 61.0 215 1.00 24.10 83.52 267.00 55.0
2022-05-20 20:41:00 2022-05-20 13:41:00 15.0000 8.9216 67.0 300 1.00 17.50 83.52 303.00 50.0
2022-05-20 21:41:00 2022-05-20 14:41:00 13.3333 5.2389 58.0 252 0.00 15.10 83.52 285.00 58.0
2022-05-20 22:41:00 2022-05-20 15:41:00 13.3333 5.2389 58.0 179 1.00 13.90 83.52 279.00 58.0
2022-05-20 23:41:00 2022-05-20 16:41:00 12.7778 4.7179 58.0 112 0.00 12.60 83.52 11.00 60.0
2022-05-21 00:41:00 2022-05-20 17:41:00 12.7778 4.9631 59.0 298 0.00 12.40 83.52 46.00 63.0
2022-05-21 01:41:00 2022-05-20 18:41:00 10.5556 1.1039 52.0 317 0.00 12.30 83.52 283.00 70.0
2022-05-21 05:41:00 2022-05-20 22:41:00 4.4444 -7.9984 40.0 9 0.00 19.80 83.52 59.00 96.0
2022-05-21 06:41:00 2022-05-20 23:41:00 3.3333 -9.6549 38.0 27 0.00 20.60 83.52 333.00 97.0
2022-05-21 07:41:00 2022-05-21 00:41:00 2.7778 -10.4906 37.0 344 0.00 21.70 83.52 56.00 98.0
2022-05-21 08:41:00 2022-05-21 01:41:00 2.2222 -11.6843 35.0 314 0.00 22.20 83.52 342.00 98.0
2022-05-21 09:41:00 2022-05-21 02:41:00 1.6667 -12.1787 35.0 348 0.00 22.80 83.52 300.00 99.0
2022-05-21 10:41:00 2022-05-21 03:41:00 1.1111 -13.0318 34.0 4 0.00 23.20 83.52 349.00 99.0
2022-05-21 11:41:00 2022-05-21 04:41:00 1.1111 -13.3999 33.0 319 0.00 23.70 83.52 4.00 99.0
2022-05-21 12:41:00 2022-05-21 05:41:00 0.5556 -13.8915 33.0 54 0.00 24.10 83.52 319.00 99.0
2022-05-21 13:41:00 2022-05-21 06:41:00 1.6667 -12.1787 35.0 324 0.00 24.30 83.52 54.00 99.0
2022-05-21 14:41:00 2022-05-21 07:41:00 1.6667 -12.1787 35.0 59 0.00 24.50 83.52 351.00 99.0
2022-05-21 15:41:00 2022-05-21 08:41:00 3.8889 -8.8242 39.0 101 0.00 24.90 83.52 68.00 99.0
2022-05-21 16:41:00 2022-05-21 09:41:00 6.1111 -5.5471 43.0 120 0.00 24.30 83.52 171.00 91.0
2022-05-21 17:41:00 2022-05-21 10:41:00 9.4444 -0.7433 49.0 171 0.00 21.30 83.52 271.00 75.0
2022-05-21 18:41:00 2022-05-21 11:41:00 15.5556 8.7713 64.0 66 1.00 19.80 83.52 355.00 50.0
2022-05-21 19:41:00 2022-05-21 12:41:00 11.1111 1.8852 53.0 22 0.00 14.90 83.52 17.00 73.0
2022-05-21 20:41:00 2022-05-21 13:41:00 16.1111 9.7563 66.0 29 1.00 13.70 83.52 45.00 43.0
2022-05-21 21:41:00 2022-05-21 14:41:00 16.1111 9.0642 63.0 53 1.00 12.40 83.52 21.00 49.0
2022-05-21 22:41:00 2022-05-21 15:41:00 8.8889 -0.9789 50.0 353 1.00 14.60 83.52 234.00 92.0
2022-05-21 23:41:00 2022-05-21 16:41:00 11.6667 2.6643 54.0 12 0.00 17.00 83.52 277.00 84.0
2022-05-22 00:41:00 2022-05-21 17:41:00 10.5556 1.6302 54.0 352 0.00 18.50 83.52 137.00 88.0
2022-05-22 01:41:00 2022-05-21 18:41:00 8.3333 -2.0466 48.0 355 0.00 19.20 83.52 1.00 94.0
2022-05-22 02:41:00 2022-05-21 19:41:00 7.7778 -3.1305 46.0 7 0.00 20.50 83.52 1.00 97.0
2022-05-22 03:41:00 2022-05-21 20:41:00 6.6667 -4.7380 44.0 5 0.00 21.50 83.52 349.00 98.0
2022-05-22 04:41:00 2022-05-21 21:41:00 5.5556 -6.3601 42.0 0 0.00 22.60 83.52 2.00 98.0
2022-05-22 05:41:00 2022-05-21 22:41:00 5.0000 -7.4973 40.0 324 0.00 23.20 83.52 355.00 98.0
2022-05-22 06:41:00 2022-05-21 23:41:00 3.8889 -8.8242 39.0 341 0.00 23.80 83.52 349.00 99.0
2022-05-22 07:41:00 2022-05-22 00:41:00 3.3333 -9.6549 38.0 331 0.00 24.30 83.52 351.00 99.0
2022-05-22 08:41:00 2022-05-22 01:41:00 2.7778 -10.4906 37.0 341 0.00 24.60 83.52 287.00 99.0
2022-05-22 09:41:00 2022-05-22 02:41:00 2.7778 -10.8360 36.0 345 0.00 24.80 83.52 348.00 99.0
2022-05-22 10:41:00 2022-05-22 03:41:00 2.2222 -11.6843 35.0 3 0.00 25.10 83.52 335.00 99.0
2022-05-22 11:41:00 2022-05-22 04:41:00 1.6667 -12.1787 35.0 5 0.00 25.30 83.52 330.00 99.0
2022-05-22 12:41:00 2022-05-22 05:41:00 1.6667 -12.5388 34.0 341 0.00 25.50 83.52 353.00 99.0
2022-05-22 13:41:00 2022-05-22 06:41:00 1.6667 -12.5388 34.0 4 0.00 25.80 83.52 335.00 99.0
2022-05-22 14:41:00 2022-05-22 07:41:00 1.6667 -12.1787 35.0 47 0.00 25.90 83.52 4.00 99.0
2022-05-22 15:41:00 2022-05-22 08:41:00 5.0000 -7.1771 41.0 52 0.00 26.00 83.52 80.00 99.0
2022-05-22 16:41:00 2022-05-22 09:41:00 8.3333 -2.6223 46.0 75 0.00 25.60 83.52 49.00 83.0
2022-05-22 17:41:00 2022-05-22 10:41:00 11.1111 1.3477 51.0 153 0.00 22.80 83.52 156.00 74.0
2022-05-22 18:41:00 2022-05-22 11:41:00 17.2222 10.5840 65.0 168 1.00 20.70 83.52 167.00 42.0
2022-05-22 19:41:00 2022-05-22 12:41:00 20.5556 16.1779 76.0 139 0.00 12.80 83.52 174.00 31.0
2022-05-22 20:41:00 2022-05-22 13:41:00 21.1111 16.9212 77.0 172 0.00 11.10 83.52 258.00 29.0
2022-05-22 21:41:00 2022-05-22 14:41:00 20.0000 14.3623 70.0 109 0.00 10.40 83.52 37.00 30.0
2022-05-22 22:41:00 2022-05-22 15:41:00 19.4444 13.3846 68.0 86 0.00 10.10 83.52 53.00 39.0
2022-05-22 23:41:00 2022-05-22 16:41:00 19.4444 13.6089 69.0 109 1.00 9.80 83.52 263.00 36.0
2022-05-23 00:41:00 2022-05-22 17:41:00 18.8889 13.0777 69.0 328 0.00 9.80 83.52 288.00 44.0
2022-05-23 01:41:00 2022-05-22 18:41:00 17.2222 10.1155 63.0 341 0.00 9.70 83.52 1.00 54.0
2022-05-23 02:41:00 2022-05-22 19:41:00 15.0000 7.0510 59.0 74 0.00 9.90 83.52 176.00 70.0
2022-05-23 03:41:00 2022-05-22 20:41:00 11.6667 2.4011 53.0 6 0.00 10.50 83.52 5.00 78.0
2022-05-23 04:41:00 2022-05-22 21:41:00 10.5556 0.5593 50.0 349 0.00 11.60 83.52 226.00 81.0
2022-05-23 05:41:00 2022-05-22 22:41:00 9.4444 -0.7433 49.0 296 0.00 12.80 83.52 272.00 82.0
2022-05-23 06:41:00 2022-05-22 23:41:00 8.8889 -1.5360 48.0 333 0.00 13.80 83.52 4.00 80.0
2022-05-23 07:41:00 2022-05-23 00:41:00 8.3333 -2.6223 46.0 342 0.00 14.60 83.52 333.00 84.0
2022-05-23 08:41:00 2022-05-23 01:41:00 7.2222 -3.9325 45.0 304 0.00 15.80 83.52 290.00 86.0
2022-05-23 09:41:00 2022-05-23 02:41:00 7.2222 -3.9325 45.0 285 0.00 16.40 83.52 265.00 85.0
2022-05-23 10:41:00 2022-05-23 03:41:00 7.2222 -3.9325 45.0 263 0.00 17.00 83.52 285.00 85.0
2022-05-23 11:41:00 2022-05-23 04:41:00 7.2222 -3.9325 45.0 352 0.00 17.50 83.52 262.00 87.0
2022-05-23 12:41:00 2022-05-23 05:41:00 7.2222 -3.9325 45.0 311 0.00 18.20 83.52 262.00 87.0
2022-05-23 13:41:00 2022-05-23 06:41:00 7.2222 -3.9325 45.0 278 0.00 18.60 83.52 263.00 88.0
2022-05-23 14:41:00 2022-05-23 07:41:00 7.7778 -3.1305 46.0 278 0.00 19.00 83.52 278.00 89.0
2022-05-23 15:41:00 2022-05-23 08:41:00 9.4444 -0.7433 49.0 209 0.00 19.20 83.52 169.00 85.0
2022-05-23 16:41:00 2022-05-23 09:41:00 11.1111 1.8852 53.0 236 0.00 18.00 83.52 280.00 77.0
2022-05-23 17:41:00 2022-05-23 10:41:00 12.7778 4.2160 56.0 26 0.00 16.20 83.52 299.00 69.0
2022-05-23 18:41:00 2022-05-23 11:41:00 13.8889 5.7599 58.0 46 0.00 14.20 83.52 297.00 63.0
2022-05-23 19:41:00 2022-05-23 12:41:00 16.1111 9.2980 64.0 42 1.00 12.90 83.52 35.00 50.0
2022-05-23 20:41:00 2022-05-23 13:41:00 15.5556 8.3022 62.0 136 1.00 11.50 83.52 278.00 53.0
2022-05-23 21:41:00 2022-05-23 14:41:00 15.0000 7.2967 60.0 60 1.00 11.10 83.52 256.00 55.0
2022-05-23 22:41:00 2022-05-23 15:41:00 17.2222 10.3514 64.0 121 1.00 10.90 83.52 339.00 49.0
2022-05-23 23:41:00 2022-05-23 16:41:00 17.7778 11.1115 65.0 96 2.00 10.40 83.52 39.00 45.0
2022-05-24 00:41:00 2022-05-23 17:41:00 16.6667 10.7329 68.0 99 1.00 10.20 83.52 30.00 47.0
2022-05-24 01:41:00 2022-05-23 18:41:00 13.8889 5.5089 57.0 341 0.00 10.10 83.52 275.00 55.0
2022-05-24 02:41:00 2022-05-23 19:41:00 12.2222 3.1812 54.0 242 0.00 10.40 83.52 327.00 65.0
2022-05-24 03:41:00 2022-05-23 20:41:00 11.1111 1.6187 52.0 274 0.00 11.00 83.52 22.00 72.0
2022-05-24 04:41:00 2022-05-23 21:41:00 10.5556 0.5593 50.0 6 0.00 12.00 83.52 17.00 80.0
2022-05-24 05:41:00 2022-05-23 22:41:00 10.0000 0.0467 50.0 102 0.00 13.20 83.52 290.00 82.0
2022-05-24 06:41:00 2022-05-23 23:41:00 10.0000 0.0467 50.0 38 0.00 14.40 83.52 5.00 84.0
2022-05-24 07:41:00 2022-05-24 00:41:00 10.0000 0.0467 50.0 339 0.00 15.40 83.52 272.00 83.0
2022-05-24 08:41:00 2022-05-24 01:41:00 9.4444 -0.7433 49.0 335 0.00 16.00 83.52 339.00 84.0
2022-05-24 09:41:00 2022-05-24 02:41:00 8.8889 -1.5360 48.0 3 0.00 17.00 83.52 343.00 86.0
2022-05-24 10:41:00 2022-05-24 03:41:00 8.3333 -2.3317 47.0 175 0.00 17.50 83.52 3.00 83.0
2022-05-24 11:41:00 2022-05-24 04:41:00 8.3333 -2.3317 47.0 228 0.00 17.60 83.52 175.00 80.0
2022-05-24 12:41:00 2022-05-24 05:41:00 7.7778 -3.1305 46.0 347 0.00 17.40 83.52 263.00 80.0
2022-05-24 13:41:00 2022-05-24 06:41:00 7.2222 -3.9325 45.0 110 0.00 17.50 83.52 307.00 79.0
2022-05-24 14:41:00 2022-05-24 07:41:00 7.7778 -3.1305 46.0 108 0.00 17.40 83.52 235.00 77.0
2022-05-24 15:41:00 2022-05-24 08:41:00 9.4444 -0.4661 50.0 30 0.00 17.30 83.52 265.00 78.0
2022-05-24 16:41:00 2022-05-24 09:41:00 11.6667 2.6643 54.0 247 0.00 15.70 83.52 274.00 69.0
2022-05-24 17:41:00 2022-05-24 10:41:00 13.8889 5.7599 58.0 253 0.00 13.80 83.52 261.00 63.0
2022-05-24 18:41:00 2022-05-24 11:41:00 16.1111 9.0642 63.0 214 0.00 12.70 83.52 299.00 55.0
2022-05-24 19:41:00 2022-05-24 12:41:00 16.6667 10.0564 65.0 257 0.00 11.30 83.52 301.00 51.0
2022-05-24 20:41:00 2022-05-24 13:41:00 19.4444 14.2650 72.0 223 1.00 10.50 83.52 316.00 36.0
2022-05-24 21:41:00 2022-05-24 14:41:00 17.2222 10.8135 66.0 120 0.00 10.00 83.52 296.00 45.0
2022-05-24 22:41:00 2022-05-24 15:41:00 15.0000 6.8017 58.0 297 0.00 10.00 83.52 288.00 57.0
2022-05-24 23:41:00 2022-05-24 16:41:00 11.6667 2.1335 52.0 43 0.00 16.40 83.53 0.00 85.0
2022-05-25 00:41:00 2022-05-24 17:41:00 11.1111 1.6187 52.0 74 0.00 21.60 83.54 111.00 92.0
2022-05-25 01:41:00 2022-05-24 18:41:00 11.1111 1.6187 52.0 46 0.00 23.00 83.54 61.00 88.0
2022-05-25 02:41:00 2022-05-24 19:41:00 10.0000 0.0467 50.0 24 0.00 23.70 83.54 24.00 89.0
2022-05-25 03:41:00 2022-05-24 20:41:00 9.4444 -0.7433 49.0 344 0.00 24.10 83.54 18.00 90.0
2022-05-25 04:41:00 2022-05-24 21:41:00 8.8889 -1.5360 48.0 337 0.00 24.20 83.54 275.00 90.0
2022-05-25 05:41:00 2022-05-24 22:41:00 8.8889 -1.5360 48.0 0 0.00 24.00 83.54 152.00 88.0
2022-05-25 06:41:00 2022-05-24 23:41:00 8.3333 -2.6223 46.0 323 0.00 24.30 83.54 342.00 90.0
2022-05-25 07:41:00 2022-05-25 00:41:00 7.7778 -3.1305 46.0 295 0.00 25.60 83.55 257.00 96.0
2022-05-25 08:41:00 2022-05-25 01:41:00 7.7778 -3.4255 45.0 356 0.00 26.10 83.57 218.00 98.0
2022-05-25 09:41:00 2022-05-25 02:41:00 7.2222 -3.9325 45.0 292 0.00 26.30 83.60 0.00 98.0
2022-05-25 10:41:00 2022-05-25 03:41:00 7.2222 -3.9325 45.0 264 0.00 26.50 83.65 267.00 99.0
2022-05-25 11:41:00 2022-05-25 04:41:00 7.2222 -3.9325 45.0 341 0.00 26.70 83.69 274.00 99.0
2022-05-25 12:41:00 2022-05-25 05:41:00 7.2222 -3.9325 45.0 274 0.00 26.80 83.71 355.00 99.0
2022-05-25 13:41:00 2022-05-25 06:41:00 7.2222 -3.9325 45.0 275 0.00 26.80 83.72 268.00 99.0
2022-05-25 14:41:00 2022-05-25 07:41:00 7.7778 -3.1305 46.0 15 0.00 26.80 83.72 289.00 99.0
2022-05-25 15:41:00 2022-05-25 08:41:00 7.7778 -2.8412 47.0 287 0.00 26.70 83.72 314.00 99.0
2022-05-25 16:41:00 2022-05-25 09:41:00 8.3333 -2.3317 47.0 246 0.00 26.70 83.72 269.00 98.0
2022-05-25 17:41:00 2022-05-25 10:41:00 9.4444 -0.4661 50.0 359 0.00 26.60 83.72 247.00 98.0
2022-05-25 18:41:00 2022-05-25 11:41:00 12.7778 4.7179 58.0 200 0.00 24.40 83.72 290.00 97.0
2022-05-25 19:41:00 2022-05-25 12:41:00 13.3333 5.4852 59.0 176 1.00 25.70 83.72 341.00 90.0
2022-05-25 20:41:00 2022-05-25 13:41:00 15.0000 7.2967 60.0 180 0.00 25.30 83.72 14.00 82.0
2022-05-25 21:41:00 2022-05-25 14:41:00 15.0000 7.2967 60.0 257 0.00 24.80 83.72 304.00 85.0
2022-05-25 22:41:00 2022-05-25 15:41:00 16.6667 9.3517 62.0 166 1.00 22.00 83.72 9.00 70.0
2022-05-25 23:41:00 2022-05-25 16:41:00 16.6667 9.8247 64.0 167 0.00 18.20 83.72 283.00 65.0
2022-05-26 00:41:00 2022-05-25 17:41:00 16.6667 10.0564 65.0 309 1.00 15.80 83.72 290.00 67.0
2022-05-26 01:41:00 2022-05-25 18:41:00 14.4444 6.2808 58.0 357 0.00 15.50 83.72 13.00 73.0
2022-05-26 02:41:00 2022-05-25 19:41:00 12.7778 3.9591 55.0 359 0.00 16.80 83.72 10.00 85.0
2022-05-26 03:41:00 2022-05-25 20:41:00 11.1111 1.6187 52.0 340 0.00 18.50 83.72 359.00 89.0
2022-05-26 04:41:00 2022-05-25 21:41:00 9.4444 -0.7433 49.0 324 0.00 19.90 83.72 218.00 86.0
2022-05-26 05:41:00 2022-05-25 22:41:00 8.8889 -1.8224 47.0 200 0.00 20.60 83.72 55.00 86.0
2022-05-26 06:41:00 2022-05-25 23:41:00 7.7778 -3.4255 45.0 277 0.00 20.60 83.72 300.00 87.0